x

Cape Elizabeth- 45nm Nw Of Aberdeen, Wa (46041) Wave Buoy

8:50 - Fri 21st Jul 2017 All times are PDT. -7 hours from GMT.

  • Sig Wave height 2.6ft
  • Swell Direction
  • Peak Period 6s
  • Average Period 5s
  • Wind
    9mph, 11mph gusts
  • Sea Temp 61°f
  • Aire Temp 60°f
  • Sea Pressure 1020.3mb
  • Cape Elizabeth- 45nm Nw Of Aberdeen, Wa
  • Cape Elizabeth- 45nm Nw Of Aberdeen, Wa

More Historic Weather Station data

Upgrade to MSW Pro to gain access to the past 30 days of data for over 8000 Wavebouys and Weather Stations around the globe.

Join Pro

Comparision Forecast

View Surf forecast
   
vie 07/21 8:50 2.5ft 6s 5s 9 11 mph 1020.3mb 61f 60f
7:50 2.5ft 16s 5s 7 9 mph 1020.2mb 61f 60f
6:50 2ft 16s 5s 4 7 mph 1020.7mb 61f 60f
5:50 1.6ft 14s 5s 7 9 mph 1020.8mb 60f 61f
4:50 1.6ft 15s 5s 7 9 mph 1021.2mb 60f 60f
3:50 1.6ft 14s 5s 9 11 mph 1021.5mb 60f 60f
2:50 1.6ft 13s 4s 11 11 mph 1021.5mb 60f 60f
1:50 1.6ft 15s 4s 11 13 mph 1021.5mb 60f 60f
12:50 1.6ft 13s 4s 11 13 mph 1021mb 60f 60f
11:50 1.6ft 15s 5s 9 11 mph 1021.1mb 61f 59f
10:50 1.6ft 16s 5s 9 11 mph 1021mb 60f 59f
9:50 1.6ft 15s 5s 9 9 mph 1021mb 60f 59f
8:50 1.6ft 11s 5s 9 11 mph 1020.6mb 60f 59f
7:50 1.6ft 12s 5s 9 9 mph 1020.5mb 60f 58f
6:50 2ft 13s 6s 7 9 mph 1020.2mb 60f 58f
5:50 2ft 13s 6s 4 4 mph 1020.2mb 60f 58f
4:50 2ft 13s 6s 7 7 mph 1019.9mb 61f 58f
3:50 1.6ft 13s 6s 2 2 mph 1020.1mb 61f 59f
2:50 1.6ft 13s 5s  -  2 mph 1020.4mb 61f 59f
1:50 2ft 16s 6s  -  0 mph 1020.5mb 60f 59f
12:50 1.6ft 14s 5s  -  2 mph 1020.4mb 60f 59f
jue 07/20 11:50 2ft 13s 5s  -  2 mph 1020.5mb 61f 60f
10:50 1.6ft 14s 5s  -  0 mph 1020.6mb 61f 60f
9:50 1.6ft 13s 5s 2 2 mph 1020.6mb 62f 60f
8:50 2ft 12s 5s 2 2 mph 1020.6mb 62f 61f
7:50 2ft 14s 5s 4 4 mph 1020.9mb 62f 62f
6:50 2ft 14s 5s 4 4 mph 1021.1mb 62f 62f
5:50 2ft 13s 5s 4 4 mph 1021.3mb 62f 61f
4:50 2ft 14s 5s 9 9 mph 1021.7mb 61f 61f
3:50 2ft 14s 5s 7 9 mph 1021.7mb 61f 60f
2:50 2ft 14s 5s 9 9 mph 1021.8mb 61f 60f
1:50 2ft 4s 5s 9 11 mph 1021.6mb 61f 60f
12:50 2ft 4s 4s 9 9 mph 1021.2mb 60f 59f
11:50 2ft 14s 5s 9 11 mph 1020.9mb 60f 59f
10:50 2ft 5s 4s 7 9 mph 1020.4mb 60f 59f
9:50 2.5ft 5s 4s 7 9 mph 1019.8mb 60f 60f
8:50 2.5ft 5s 4s 2 4 mph 1019.6mb 60f 59f
7:50 2.5ft 4s 4s 4 7 mph 1019.3mb 60f 58f
6:50 2.5ft 5s 4s 7 7 mph 1019.1mb 60f 58f
5:50 2.5ft 5s 4s 9 9 mph 1018.7mb 58f 58f
4:50 2.5ft 5s 5s 7 9 mph 1018.2mb 58f 58f
3:50 2.5ft 5s 5s 4 7 mph 1017.8mb 58f 59f
2:50 1.6ft 5s 5s 4 7 mph 1017.6mb 58f 59f
1:50 1.6ft 5s 5s 7 7 mph 1017.6mb 58f 59f
12:50 1.3ft 15s 5s 4 4 mph 1017.5mb 57f 59f
mié 07/19 11:50 1.3ft 7s 6s 11 13 mph 1017.3mb 58f 59f
10:50 1.3ft 9s 6s 7 9 mph 1017.3mb 57f 59f
9:50 1.3ft 5s 5s 7 7 mph 1017.5mb 59f 59f
8:50 1.3ft 15s 5s 4 7 mph 1017.6mb 60f 60f
7:50 1.3ft 13s 5s 4 4 mph 1017.6mb 61f 60f
6:50 1.3ft 5s 5s 2 2 mph 1017.8mb 60f 60f
5:50 1.6ft 10s 5s 2 4 mph 1018.1mb 60f 61f
4:50 1.6ft 6s 5s 2 4 mph 1018.8mb 60f 60f
3:50 1.3ft 6s 6s 2 4 mph 1019.2mb 60f 60f
2:50 1.3ft 6s 6s 2 4 mph 1019.5mb 60f 60f
1:50 1.3ft 6s 6s 4 4 mph 1019.6mb 60f 59f
12:50 1.3ft 6s 6s 2 2 mph 1019.7mb 60f 58f
11:50 1.3ft 6s 5s 2 4 mph 1019.8mb 58f 58f
10:50 1.3ft 6s 5s 4 4 mph 1019.8mb 57f 57f
9:50 1.6ft 6s 5s 4 4 mph 1020mb 56f 57f
8:50 1.3ft 6s 5s 4 4 mph 1019.9mb 56f 56f
7:50 1.6ft 7s 4s 7 7 mph 1020mb 56f 56f
6:50 2ft 6s 5s  -  2 mph 1020.1mb 56f 56f
5:50 2ft 6s 5s  -  0 mph 1019.9mb 56f 56f
4:50 2ft 6s 5s  -  2 mph 1019.8mb 57f 56f
3:50 2ft 6s 5s 2 2 mph 1019.5mb 57f 56f
2:50 2ft 6s 5s 2 2 mph 1019.5mb 56f 56f
1:50 2ft 6s 5s 2 4 mph 1019.5mb 57f 57f
12:50 2ft 6s 5s 2 2 mph 1019.5mb 57f 57f
mar 07/18 11:50 2ft 6s 5s 4 4 mph 1019.4mb 57f 57f
10:50 2ft 6s 4s 4 4 mph 1019.1mb 56f 57f
9:50 2ft 6s 4s 4 4 mph 1018.8mb 56f 57f
8:50 2.5ft 7s 5s 4 4 mph 1018.4mb 57f 58f
7:50 2.5ft 6s 5s 4 7 mph 1018.5mb 57f 59f
6:50 2ft 6s 5s 7 7 mph 1018.4mb 58f 59f
5:50 2.5ft 7s 5s 7 9 mph 1018.6mb 58f 59f
4:50 2ft 6s 5s 9 11 mph 1018.6mb 58f 59f
3:50 2ft 6s 5s 9 11 mph 1018.4mb 58f 59f
2:50 2ft 5s 5s 11 11 mph 1018.3mb 59f 59f
1:50 2ft 5s 5s 9 11 mph 1018.4mb 60f 59f
12:50 2ft 5s 5s 4 7 mph 1018.5mb 60f 59f
11:50 2ft 5s 4s 4 4 mph 1018.3mb 59f 57f
10:50 2.5ft 5s 4s 2 2 mph 1018.1mb 57f 55f
9:50 2ft 5s 4s 4 4 mph 1018.2mb 56f 56f
8:50 2.5ft 5s 4s 2 4 mph 1018.1mb 55f 57f
7:50 2.5ft 6s 4s 4 4 mph 1018mb 55f 56f
6:50 2.5ft 5s 4s 7 7 mph 1017.7mb 55f 56f
5:50 2.5ft 5s 4s 7 7 mph 1017.5mb 55f 56f